sensor_id;sensor_type;location;lat;lon;timestamp;P1;durP1;ratioP1;P2;durP2;ratioP2
8540;SDS011;4308;51.294;6.590;2023-02-19T00:01:16;9.87;;;7.73;;
8540;SDS011;4308;51.294;6.590;2023-02-19T00:03:48;9.53;;;8.23;;
8540;SDS011;4308;51.294;6.590;2023-02-19T00:06:17;9.77;;;8.77;;
8540;SDS011;4308;51.294;6.590;2023-02-19T00:08:45;9.63;;;8.63;;
8540;SDS011;4308;51.294;6.590;2023-02-19T00:11:13;13.20;;;9.40;;
8540;SDS011;4308;51.294;6.590;2023-02-19T00:13:42;11.60;;;8.93;;
8540;SDS011;4308;51.294;6.590;2023-02-19T00:16:14;10.80;;;8.27;;
8540;SDS011;4308;51.294;6.590;2023-02-19T00:18:42;11.97;;;9.13;;
8540;SDS011;4308;51.294;6.590;2023-02-19T00:21:10;10.80;;;9.23;;
8540;SDS011;4308;51.294;6.590;2023-02-19T00:23:38;11.20;;;8.60;;
8540;SDS011;4308;51.294;6.590;2023-02-19T00:26:10;11.30;;;9.47;;
8540;SDS011;4308;51.294;6.590;2023-02-19T00:28:44;10.33;;;9.17;;
8540;SDS011;4308;51.294;6.590;2023-02-19T00:31:16;12.93;;;9.97;;
8540;SDS011;4308;51.294;6.590;2023-02-19T00:33:45;10.57;;;8.60;;
8540;SDS011;4308;51.294;6.590;2023-02-19T00:36:12;10.50;;;8.87;;
8540;SDS011;4308;51.294;6.590;2023-02-19T00:38:41;10.53;;;9.00;;
8540;SDS011;4308;51.294;6.590;2023-02-19T00:41:09;11.67;;;9.23;;
8540;SDS011;4308;51.294;6.590;2023-02-19T00:43:37;10.37;;;9.27;;
8540;SDS011;4308;51.294;6.590;2023-02-19T00:46:05;12.23;;;9.13;;
8540;SDS011;4308;51.294;6.590;2023-02-19T00:48:32;12.97;;;9.23;;
8540;SDS011;4308;51.294;6.590;2023-02-19T00:51:00;12.97;;;9.63;;
8540;SDS011;4308;51.294;6.590;2023-02-19T00:53:27;12.17;;;9.33;;
8540;SDS011;4308;51.294;6.590;2023-02-19T00:55:55;13.73;;;9.73;;
8540;SDS011;4308;51.294;6.590;2023-02-19T00:58:22;12.13;;;8.47;;
8540;SDS011;4308;51.294;6.590;2023-02-19T01:00:50;13.20;;;9.60;;
8540;SDS011;4308;51.294;6.590;2023-02-19T01:03:20;10.17;;;8.67;;
8540;SDS011;4308;51.294;6.590;2023-02-19T01:05:48;10.83;;;8.60;;
8540;SDS011;4308;51.294;6.590;2023-02-19T01:08:16;13.50;;;9.17;;
8540;SDS011;4308;51.294;6.590;2023-02-19T01:10:43;14.27;;;8.83;;
8540;SDS011;4308;51.294;6.590;2023-02-19T01:13:11;10.67;;;8.13;;
8540;SDS011;4308;51.294;6.590;2023-02-19T01:15:38;12.73;;;10.03;;
8540;SDS011;4308;51.294;6.590;2023-02-19T01:18:06;11.23;;;9.33;;
8540;SDS011;4308;51.294;6.590;2023-02-19T01:20:33;14.53;;;9.30;;
8540;SDS011;4308;51.294;6.590;2023-02-19T01:23:01;14.37;;;9.57;;
8540;SDS011;4308;51.294;6.590;2023-02-19T01:25:29;13.77;;;8.87;;
8540;SDS011;4308;51.294;6.590;2023-02-19T01:27:56;15.53;;;9.60;;
8540;SDS011;4308;51.294;6.590;2023-02-19T01:30:24;12.63;;;9.17;;
8540;SDS011;4308;51.294;6.590;2023-02-19T01:32:51;15.03;;;9.60;;
8540;SDS011;4308;51.294;6.590;2023-02-19T01:35:19;14.17;;;8.87;;
8540;SDS011;4308;51.294;6.590;2023-02-19T01:37:46;14.53;;;9.30;;
8540;SDS011;4308;51.294;6.590;2023-02-19T01:40:14;13.87;;;9.80;;
8540;SDS011;4308;51.294;6.590;2023-02-19T01:42:42;15.57;;;9.87;;
8540;SDS011;4308;51.294;6.590;2023-02-19T01:47:51;15.70;;;9.97;;
8540;SDS011;4308;51.294;6.590;2023-02-19T01:50:20;19.40;;;10.93;;
8540;SDS011;4308;51.294;6.590;2023-02-19T01:52:48;16.60;;;10.60;;
8540;SDS011;4308;51.294;6.590;2023-02-19T01:55:15;15.37;;;10.67;;
8540;SDS011;4308;51.294;6.590;2023-02-19T01:57:44;16.70;;;10.90;;
8540;SDS011;4308;51.294;6.590;2023-02-19T02:00:13;16.33;;;11.13;;
8540;SDS011;4308;51.294;6.590;2023-02-19T02:02:41;19.77;;;11.77;;
8540;SDS011;4308;51.294;6.590;2023-02-19T02:05:12;16.63;;;11.83;;
8540;SDS011;4308;51.294;6.590;2023-02-19T02:07:43;15.97;;;11.23;;
8540;SDS011;4308;51.294;6.590;2023-02-19T02:10:11;18.20;;;10.47;;
8540;SDS011;4308;51.294;6.590;2023-02-19T02:12:38;21.17;;;12.30;;
8540;SDS011;4308;51.294;6.590;2023-02-19T02:15:06;17.13;;;12.20;;
8540;SDS011;4308;51.294;6.590;2023-02-19T02:27:48;25.37;;;15.23;;
8540;SDS011;4308;51.294;6.590;2023-02-19T02:30:36;23.40;;;14.17;;
8540;SDS011;4308;51.294;6.590;2023-02-19T02:35:47;24.30;;;14.70;;
8540;SDS011;4308;51.294;6.590;2023-02-19T02:38:16;22.00;;;13.87;;
8540;SDS011;4308;51.294;6.590;2023-02-19T02:40:44;22.50;;;13.87;;
8540;SDS011;4308;51.294;6.590;2023-02-19T02:43:13;21.47;;;13.13;;
8540;SDS011;4308;51.294;6.590;2023-02-19T02:45:40;24.43;;;14.17;;
8540;SDS011;4308;51.294;6.590;2023-02-19T02:48:29;23.60;;;14.40;;
8540;SDS011;4308;51.294;6.590;2023-02-19T02:51:05;22.13;;;14.90;;
8540;SDS011;4308;51.294;6.590;2023-02-19T02:56:22;25.13;;;14.57;;
8540;SDS011;4308;51.294;6.590;2023-02-19T02:58:51;21.97;;;13.90;;
8540;SDS011;4308;51.294;6.590;2023-02-19T03:01:23;23.97;;;14.37;;
8540;SDS011;4308;51.294;6.590;2023-02-19T03:03:53;22.60;;;13.73;;
8540;SDS011;4308;51.294;6.590;2023-02-19T03:06:21;21.40;;;13.63;;
8540;SDS011;4308;51.294;6.590;2023-02-19T03:08:52;20.50;;;12.80;;
8540;SDS011;4308;51.294;6.590;2023-02-19T03:11:21;23.43;;;13.77;;
8540;SDS011;4308;51.294;6.590;2023-02-19T03:13:50;24.20;;;13.40;;
8540;SDS011;4308;51.294;6.590;2023-02-19T03:16:21;24.47;;;13.30;;
8540;SDS011;4308;51.294;6.590;2023-02-19T03:18:52;26.00;;;14.60;;
8540;SDS011;4308;51.294;6.590;2023-02-19T03:21:20;21.03;;;13.60;;
8540;SDS011;4308;51.294;6.590;2023-02-19T03:23:48;21.60;;;14.17;;
8540;SDS011;4308;51.294;6.590;2023-02-19T03:26:16;22.87;;;14.47;;
8540;SDS011;4308;51.294;6.590;2023-02-19T03:28:46;25.90;;;13.97;;
8540;SDS011;4308;51.294;6.590;2023-02-19T03:31:15;22.53;;;13.43;;
8540;SDS011;4308;51.294;6.590;2023-02-19T03:33:44;22.50;;;13.43;;
8540;SDS011;4308;51.294;6.590;2023-02-19T03:36:13;21.60;;;13.87;;
8540;SDS011;4308;51.294;6.590;2023-02-19T03:38:42;21.53;;;13.70;;
8540;SDS011;4308;51.294;6.590;2023-02-19T03:47:14;25.53;;;15.27;;
8540;SDS011;4308;51.294;6.590;2023-02-19T03:49:32;24.33;;;14.57;;
8540;SDS011;4308;51.294;6.590;2023-02-19T03:57:17;24.90;;;13.73;;
8540;SDS011;4308;51.294;6.590;2023-02-19T03:59:54;25.37;;;13.30;;
8540;SDS011;4308;51.294;6.590;2023-02-19T04:02:32;21.87;;;13.93;;
8540;SDS011;4308;51.294;6.590;2023-02-19T04:05:06;25.07;;;14.70;;
8540;SDS011;4308;51.294;6.590;2023-02-19T04:07:34;28.07;;;15.10;;
8540;SDS011;4308;51.294;6.590;2023-02-19T04:10:04;24.23;;;14.23;;
8540;SDS011;4308;51.294;6.590;2023-02-19T04:12:33;27.27;;;14.90;;
8540;SDS011;4308;51.294;6.590;2023-02-19T04:15:04;26.83;;;14.70;;
8540;SDS011;4308;51.294;6.590;2023-02-19T04:17:34;26.27;;;15.30;;
8540;SDS011;4308;51.294;6.590;2023-02-19T04:20:04;26.23;;;14.40;;
8540;SDS011;4308;51.294;6.590;2023-02-19T04:22:34;24.37;;;13.57;;
8540;SDS011;4308;51.294;6.590;2023-02-19T04:25:02;28.00;;;14.33;;
8540;SDS011;4308;51.294;6.590;2023-02-19T04:27:30;25.30;;;13.87;;
8540;SDS011;4308;51.294;6.590;2023-02-19T04:29:58;21.80;;;13.10;;
8540;SDS011;4308;51.294;6.590;2023-02-19T04:32:25;24.33;;;12.73;;
8540;SDS011;4308;51.294;6.590;2023-02-19T04:34:53;25.43;;;13.00;;
8540;SDS011;4308;51.294;6.590;2023-02-19T04:37:20;25.87;;;13.40;;
8540;SDS011;4308;51.294;6.590;2023-02-19T04:39:48;22.10;;;11.30;;
8540;SDS011;4308;51.294;6.590;2023-02-19T04:42:15;22.30;;;11.37;;
8540;SDS011;4308;51.294;6.590;2023-02-19T04:44:43;18.13;;;10.77;;
8540;SDS011;4308;51.294;6.590;2023-02-19T04:47:11;21.93;;;10.73;;
8540;SDS011;4308;51.294;6.590;2023-02-19T04:49:38;18.57;;;9.97;;
8540;SDS011;4308;51.294;6.590;2023-02-19T04:52:06;21.83;;;9.50;;
8540;SDS011;4308;51.294;6.590;2023-02-19T04:54:33;14.40;;;8.53;;
8540;SDS011;4308;51.294;6.590;2023-02-19T04:57:01;21.63;;;9.10;;
8540;SDS011;4308;51.294;6.590;2023-02-19T04:59:28;14.53;;;8.20;;
8540;SDS011;4308;51.294;6.590;2023-02-19T05:01:56;16.83;;;8.00;;
8540;SDS011;4308;51.294;6.590;2023-02-19T05:04:23;15.67;;;8.60;;
8540;SDS011;4308;51.294;6.590;2023-02-19T05:06:51;16.30;;;8.07;;
8540;SDS011;4308;51.294;6.590;2023-02-19T05:09:19;17.00;;;7.77;;
8540;SDS011;4308;51.294;6.590;2023-02-19T05:11:46;16.00;;;6.83;;
8540;SDS011;4308;51.294;6.590;2023-02-19T05:14:14;14.47;;;7.90;;
8540;SDS011;4308;51.294;6.590;2023-02-19T05:16:41;22.07;;;9.53;;
8540;SDS011;4308;51.294;6.590;2023-02-19T05:19:12;20.50;;;8.60;;
8540;SDS011;4308;51.294;6.590;2023-02-19T05:21:39;17.83;;;7.63;;
8540;SDS011;4308;51.294;6.590;2023-02-19T05:24:07;22.63;;;8.07;;
8540;SDS011;4308;51.294;6.590;2023-02-19T05:26:34;17.20;;;8.43;;
8540;SDS011;4308;51.294;6.590;2023-02-19T05:29:02;20.57;;;8.03;;
8540;SDS011;4308;51.294;6.590;2023-02-19T05:31:30;18.27;;;8.23;;
8540;SDS011;4308;51.294;6.590;2023-02-19T05:33:58;21.97;;;8.57;;
8540;SDS011;4308;51.294;6.590;2023-02-19T05:36:25;17.17;;;7.03;;
8540;SDS011;4308;51.294;6.590;2023-02-19T05:38:54;19.57;;;7.47;;
8540;SDS011;4308;51.294;6.590;2023-02-19T05:41:23;17.97;;;6.70;;
8540;SDS011;4308;51.294;6.590;2023-02-19T05:43:51;13.53;;;6.87;;
8540;SDS011;4308;51.294;6.590;2023-02-19T05:46:20;15.93;;;6.40;;
8540;SDS011;4308;51.294;6.590;2023-02-19T05:48:48;13.27;;;6.27;;
8540;SDS011;4308;51.294;6.590;2023-02-19T05:51:16;15.37;;;6.03;;
8540;SDS011;4308;51.294;6.590;2023-02-19T05:53:45;15.33;;;6.33;;
8540;SDS011;4308;51.294;6.590;2023-02-19T05:58:43;16.83;;;6.37;;
8540;SDS011;4308;51.294;6.590;2023-02-19T06:01:17;11.40;;;5.57;;
8540;SDS011;4308;51.294;6.590;2023-02-19T06:03:45;14.77;;;5.77;;
8540;SDS011;4308;51.294;6.590;2023-02-19T06:06:13;16.57;;;6.83;;
8540;SDS011;4308;51.294;6.590;2023-02-19T06:08:41;19.23;;;5.73;;
8540;SDS011;4308;51.294;6.590;2023-02-19T06:11:09;19.47;;;6.60;;
8540;SDS011;4308;51.294;6.590;2023-02-19T06:13:37;13.83;;;5.70;;
8540;SDS011;4308;51.294;6.590;2023-02-19T06:16:05;20.73;;;7.43;;
8540;SDS011;4308;51.294;6.590;2023-02-19T06:18:33;21.57;;;6.57;;
8540;SDS011;4308;51.294;6.590;2023-02-19T06:21:02;13.47;;;6.83;;
8540;SDS011;4308;51.294;6.590;2023-02-19T06:23:29;19.37;;;5.80;;
8540;SDS011;4308;51.294;6.590;2023-02-19T06:26:10;11.23;;;5.70;;
8540;SDS011;4308;51.294;6.590;2023-02-19T06:28:39;16.60;;;6.00;;
8540;SDS011;4308;51.294;6.590;2023-02-19T06:31:07;14.27;;;6.20;;
8540;SDS011;4308;51.294;6.590;2023-02-19T06:33:37;11.97;;;5.00;;
8540;SDS011;4308;51.294;6.590;2023-02-19T06:36:05;13.27;;;5.43;;
8540;SDS011;4308;51.294;6.590;2023-02-19T06:38:33;18.63;;;6.40;;
8540;SDS011;4308;51.294;6.590;2023-02-19T06:41:01;19.33;;;6.90;;
8540;SDS011;4308;51.294;6.590;2023-02-19T06:43:30;16.37;;;6.43;;
8540;SDS011;4308;51.294;6.590;2023-02-19T06:45:58;14.77;;;5.10;;
8540;SDS011;4308;51.294;6.590;2023-02-19T06:48:26;20.40;;;5.83;;
8540;SDS011;4308;51.294;6.590;2023-02-19T06:50:53;12.10;;;5.63;;
8540;SDS011;4308;51.294;6.590;2023-02-19T06:53:21;15.33;;;5.50;;
8540;SDS011;4308;51.294;6.590;2023-02-19T06:55:58;15.57;;;5.90;;
8540;SDS011;4308;51.294;6.590;2023-02-19T06:58:26;12.37;;;5.30;;
8540;SDS011;4308;51.294;6.590;2023-02-19T07:00:53;18.93;;;7.40;;
8540;SDS011;4308;51.294;6.590;2023-02-19T07:03:21;16.17;;;6.20;;
8540;SDS011;4308;51.294;6.590;2023-02-19T07:05:49;19.43;;;6.53;;
8540;SDS011;4308;51.294;6.590;2023-02-19T07:08:17;12.87;;;6.07;;
8540;SDS011;4308;51.294;6.590;2023-02-19T07:10:44;13.87;;;6.40;;
8540;SDS011;4308;51.294;6.590;2023-02-19T07:13:12;17.20;;;6.33;;
8540;SDS011;4308;51.294;6.590;2023-02-19T07:15:39;13.27;;;5.90;;
8540;SDS011;4308;51.294;6.590;2023-02-19T07:18:07;19.90;;;6.53;;
8540;SDS011;4308;51.294;6.590;2023-02-19T07:20:35;12.47;;;5.13;;
8540;SDS011;4308;51.294;6.590;2023-02-19T07:23:02;12.93;;;5.30;;
8540;SDS011;4308;51.294;6.590;2023-02-19T07:25:30;15.90;;;5.83;;
8540;SDS011;4308;51.294;6.590;2023-02-19T07:27:58;18.80;;;6.00;;
8540;SDS011;4308;51.294;6.590;2023-02-19T07:30:25;14.83;;;6.30;;
8540;SDS011;4308;51.294;6.590;2023-02-19T07:32:53;17.37;;;6.67;;
8540;SDS011;4308;51.294;6.590;2023-02-19T07:35:20;14.63;;;5.27;;
8540;SDS011;4308;51.294;6.590;2023-02-19T07:37:48;12.97;;;5.20;;
8540;SDS011;4308;51.294;6.590;2023-02-19T07:40:15;15.17;;;5.57;;
8540;SDS011;4308;51.294;6.590;2023-02-19T07:42:43;18.13;;;6.30;;
8540;SDS011;4308;51.294;6.590;2023-02-19T07:45:11;14.83;;;5.63;;
8540;SDS011;4308;51.294;6.590;2023-02-19T07:47:38;13.47;;;6.63;;
8540;SDS011;4308;51.294;6.590;2023-02-19T07:50:06;12.73;;;5.57;;
8540;SDS011;4308;51.294;6.590;2023-02-19T07:52:34;14.70;;;6.10;;
8540;SDS011;4308;51.294;6.590;2023-02-19T07:55:01;17.17;;;6.73;;
8540;SDS011;4308;51.294;6.590;2023-02-19T07:57:29;15.20;;;6.40;;
8540;SDS011;4308;51.294;6.590;2023-02-19T07:59:56;16.80;;;7.00;;
8540;SDS011;4308;51.294;6.590;2023-02-19T08:02:24;20.80;;;7.03;;
8540;SDS011;4308;51.294;6.590;2023-02-19T08:04:51;22.27;;;7.33;;
8540;SDS011;4308;51.294;6.590;2023-02-19T08:07:19;16.00;;;7.33;;
8540;SDS011;4308;51.294;6.590;2023-02-19T08:09:47;14.90;;;6.97;;
8540;SDS011;4308;51.294;6.590;2023-02-19T08:12:14;15.67;;;6.23;;
8540;SDS011;4308;51.294;6.590;2023-02-19T08:14:42;16.23;;;6.70;;
8540;SDS011;4308;51.294;6.590;2023-02-19T08:17:09;16.40;;;6.67;;
8540;SDS011;4308;51.294;6.590;2023-02-19T08:19:37;23.13;;;7.03;;
8540;SDS011;4308;51.294;6.590;2023-02-19T08:22:05;12.80;;;5.73;;
8540;SDS011;4308;51.294;6.590;2023-02-19T08:24:32;15.07;;;6.67;;
8540;SDS011;4308;51.294;6.590;2023-02-19T08:27:00;22.03;;;7.40;;
8540;SDS011;4308;51.294;6.590;2023-02-19T08:29:27;15.23;;;6.60;;
8540;SDS011;4308;51.294;6.590;2023-02-19T08:31:55;11.43;;;6.23;;
8540;SDS011;4308;51.294;6.590;2023-02-19T08:34:23;15.63;;;6.97;;
8540;SDS011;4308;51.294;6.590;2023-02-19T08:36:50;14.73;;;6.57;;
8540;SDS011;4308;51.294;6.590;2023-02-19T08:39:18;14.47;;;6.43;;
8540;SDS011;4308;51.294;6.590;2023-02-19T08:41:47;15.90;;;6.30;;
8540;SDS011;4308;51.294;6.590;2023-02-19T08:44:14;13.07;;;6.47;;
8540;SDS011;4308;51.294;6.590;2023-02-19T08:46:42;14.10;;;6.33;;
8540;SDS011;4308;51.294;6.590;2023-02-19T08:49:09;17.30;;;5.77;;
8540;SDS011;4308;51.294;6.590;2023-02-19T08:51:37;12.77;;;6.30;;
8540;SDS011;4308;51.294;6.590;2023-02-19T08:54:04;18.17;;;6.70;;
8540;SDS011;4308;51.294;6.590;2023-02-19T08:56:32;13.03;;;6.37;;
8540;SDS011;4308;51.294;6.590;2023-02-19T08:59:00;15.40;;;7.17;;
8540;SDS011;4308;51.294;6.590;2023-02-19T09:01:27;16.30;;;6.27;;
8540;SDS011;4308;51.294;6.590;2023-02-19T09:03:55;19.83;;;7.47;;
8540;SDS011;4308;51.294;6.590;2023-02-19T09:06:23;15.30;;;6.17;;
8540;SDS011;4308;51.294;6.590;2023-02-19T09:08:50;15.53;;;6.20;;
8540;SDS011;4308;51.294;6.590;2023-02-19T09:11:18;18.83;;;7.03;;
8540;SDS011;4308;51.294;6.590;2023-02-19T09:13:46;13.13;;;6.87;;
8540;SDS011;4308;51.294;6.590;2023-02-19T09:16:13;16.47;;;6.43;;
8540;SDS011;4308;51.294;6.590;2023-02-19T09:18:41;13.57;;;6.17;;
8540;SDS011;4308;51.294;6.590;2023-02-19T09:21:08;11.37;;;5.73;;
8540;SDS011;4308;51.294;6.590;2023-02-19T09:23:36;13.87;;;6.43;;
8540;SDS011;4308;51.294;6.590;2023-02-19T09:26:05;14.20;;;6.30;;
8540;SDS011;4308;51.294;6.590;2023-02-19T09:28:33;18.63;;;6.27;;
8540;SDS011;4308;51.294;6.590;2023-02-19T09:31:04;13.03;;;5.93;;
8540;SDS011;4308;51.294;6.590;2023-02-19T09:33:32;11.73;;;5.47;;
8540;SDS011;4308;51.294;6.590;2023-02-19T09:35:59;11.33;;;5.60;;
8540;SDS011;4308;51.294;6.590;2023-02-19T09:38:27;11.40;;;5.00;;
8540;SDS011;4308;51.294;6.590;2023-02-19T09:40:55;10.13;;;4.93;;
8540;SDS011;4308;51.294;6.590;2023-02-19T09:43:23;9.67;;;5.33;;
8540;SDS011;4308;51.294;6.590;2023-02-19T09:45:57;10.83;;;5.50;;
8540;SDS011;4308;51.294;6.590;2023-02-19T09:48:27;7.47;;;4.57;;
8540;SDS011;4308;51.294;6.590;2023-02-19T09:50:54;9.23;;;5.07;;
8540;SDS011;4308;51.294;6.590;2023-02-19T09:53:24;8.83;;;3.97;;
8540;SDS011;4308;51.294;6.590;2023-02-19T09:55:53;7.77;;;4.33;;
8540;SDS011;4308;51.294;6.590;2023-02-19T09:58:29;10.20;;;4.67;;
8540;SDS011;4308;51.294;6.590;2023-02-19T10:00:57;9.70;;;4.27;;
8540;SDS011;4308;51.294;6.590;2023-02-19T10:03:27;11.17;;;4.87;;
8540;SDS011;4308;51.294;6.590;2023-02-19T10:05:59;8.60;;;4.07;;
8540;SDS011;4308;51.294;6.590;2023-02-19T10:08:29;7.90;;;4.13;;
8540;SDS011;4308;51.294;6.590;2023-02-19T10:10:58;8.23;;;5.30;;
8540;SDS011;4308;51.294;6.590;2023-02-19T10:13:30;13.17;;;5.03;;
8540;SDS011;4308;51.294;6.590;2023-02-19T10:15:59;8.90;;;4.60;;
8540;SDS011;4308;51.294;6.590;2023-02-19T10:18:28;9.27;;;4.47;;
8540;SDS011;4308;51.294;6.590;2023-02-19T10:20:58;8.13;;;4.90;;
8540;SDS011;4308;51.294;6.590;2023-02-19T10:23:26;9.80;;;4.97;;
8540;SDS011;4308;51.294;6.590;2023-02-19T10:25:55;7.97;;;5.20;;
8540;SDS011;4308;51.294;6.590;2023-02-19T10:28:24;7.70;;;5.13;;
8540;SDS011;4308;51.294;6.590;2023-02-19T10:30:54;10.10;;;5.43;;
8540;SDS011;4308;51.294;6.590;2023-02-19T10:33:22;12.87;;;6.07;;
8540;SDS011;4308;51.294;6.590;2023-02-19T10:35:57;8.63;;;5.40;;
8540;SDS011;4308;51.294;6.590;2023-02-19T10:43:34;9.37;;;5.07;;
8540;SDS011;4308;51.294;6.590;2023-02-19T10:46:06;13.43;;;5.43;;
8540;SDS011;4308;51.294;6.590;2023-02-19T10:48:35;7.17;;;4.80;;
8540;SDS011;4308;51.294;6.590;2023-02-19T10:51:09;7.20;;;5.57;;
8540;SDS011;4308;51.294;6.590;2023-02-19T10:56:12;4.90;;;3.03;;
8540;SDS011;4308;51.294;6.590;2023-02-19T10:58:40;4.50;;;3.13;;
8540;SDS011;4308;51.294;6.590;2023-02-19T11:01:09;7.03;;;3.83;;
8540;SDS011;4308;51.294;6.590;2023-02-19T11:03:37;6.33;;;3.57;;
8540;SDS011;4308;51.294;6.590;2023-02-19T11:06:05;11.63;;;5.57;;
8540;SDS011;4308;51.294;6.590;2023-02-19T11:08:43;12.37;;;6.03;;
8540;SDS011;4308;51.294;6.590;2023-02-19T11:11:31;12.67;;;6.20;;
8540;SDS011;4308;51.294;6.590;2023-02-19T11:14:01;13.20;;;7.83;;
8540;SDS011;4308;51.294;6.590;2023-02-19T11:16:36;15.40;;;7.37;;
8540;SDS011;4308;51.294;6.590;2023-02-19T11:19:04;18.63;;;9.20;;
8540;SDS011;4308;51.294;6.590;2023-02-19T11:21:32;18.30;;;8.30;;
8540;SDS011;4308;51.294;6.590;2023-02-19T11:23:59;13.40;;;9.03;;
8540;SDS011;4308;51.294;6.590;2023-02-19T11:26:30;10.13;;;7.97;;
8540;SDS011;4308;51.294;6.590;2023-02-19T11:28:59;15.87;;;8.60;;
8540;SDS011;4308;51.294;6.590;2023-02-19T11:31:27;21.87;;;10.03;;
8540;SDS011;4308;51.294;6.590;2023-02-19T11:34:39;14.10;;;9.10;;
8540;SDS011;4308;51.294;6.590;2023-02-19T11:36:53;14.87;;;9.23;;
8540;SDS011;4308;51.294;6.590;2023-02-19T11:39:33;15.97;;;8.43;;
8540;SDS011;4308;51.294;6.590;2023-02-19T11:44:42;10.77;;;8.40;;
8540;SDS011;4308;51.294;6.590;2023-02-19T11:50:13;9.27;;;6.77;;
8540;SDS011;4308;51.294;6.590;2023-02-19T11:52:51;8.67;;;6.53;;
8540;SDS011;4308;51.294;6.590;2023-02-19T12:05:28;10.70;;;6.50;;
8540;SDS011;4308;51.294;6.590;2023-02-19T12:15:52;7.23;;;6.17;;
8540;SDS011;4308;51.294;6.590;2023-02-19T12:26:29;8.73;;;6.57;;
8540;SDS011;4308;51.294;6.590;2023-02-19T12:29:06;8.00;;;6.73;;
8540;SDS011;4308;51.294;6.590;2023-02-19T12:41:56;12.20;;;7.90;;
8540;SDS011;4308;51.294;6.590;2023-02-19T12:44:37;12.27;;;8.30;;
8540;SDS011;4308;51.294;6.590;2023-02-19T12:47:07;10.73;;;7.80;;
8540;SDS011;4308;51.294;6.590;2023-02-19T12:49:39;15.70;;;8.27;;
8540;SDS011;4308;51.294;6.590;2023-02-19T12:52:21;11.67;;;8.57;;
8540;SDS011;4308;51.294;6.590;2023-02-19T12:54:52;12.30;;;7.70;;
8540;SDS011;4308;51.294;6.590;2023-02-19T12:57:22;15.40;;;7.43;;
8540;SDS011;4308;51.294;6.590;2023-02-19T13:02:29;13.03;;;7.20;;
8540;SDS011;4308;51.294;6.590;2023-02-19T13:10:29;12.10;;;6.33;;
8540;SDS011;4308;51.294;6.590;2023-02-19T13:12:59;10.97;;;7.07;;
8540;SDS011;4308;51.294;6.590;2023-02-19T13:17:55;11.43;;;7.50;;
8540;SDS011;4308;51.294;6.590;2023-02-19T13:36:38;11.97;;;7.77;;
8540;SDS011;4308;51.294;6.590;2023-02-19T13:39:06;12.13;;;8.97;;
8540;SDS011;4308;51.294;6.590;2023-02-19T13:44:05;10.80;;;8.83;;
8540;SDS011;4308;51.294;6.590;2023-02-19T13:46:34;10.83;;;9.20;;
8540;SDS011;4308;51.294;6.590;2023-02-19T13:59:38;12.87;;;9.37;;
8540;SDS011;4308;51.294;6.590;2023-02-19T14:02:13;10.60;;;8.87;;
8540;SDS011;4308;51.294;6.590;2023-02-19T14:07:27;13.23;;;8.90;;
8540;SDS011;4308;51.294;6.590;2023-02-19T14:10:00;11.80;;;8.60;;
8540;SDS011;4308;51.294;6.590;2023-02-19T14:12:31;16.07;;;8.63;;
8540;SDS011;4308;51.294;6.590;2023-02-19T14:17:45;13.23;;;8.33;;
8540;SDS011;4308;51.294;6.590;2023-02-19T14:25:47;12.63;;;8.07;;
8540;SDS011;4308;51.294;6.590;2023-02-19T14:33:15;13.97;;;7.33;;
8540;SDS011;4308;51.294;6.590;2023-02-19T14:35:44;12.77;;;7.93;;
8540;SDS011;4308;51.294;6.590;2023-02-19T14:38:17;12.40;;;7.77;;
8540;SDS011;4308;51.294;6.590;2023-02-19T14:40:46;13.43;;;7.37;;
8540;SDS011;4308;51.294;6.590;2023-02-19T14:43:15;12.70;;;7.70;;
8540;SDS011;4308;51.294;6.590;2023-02-19T14:45:48;10.80;;;6.90;;
8540;SDS011;4308;51.294;6.590;2023-02-19T14:48:22;8.00;;;5.40;;
8540;SDS011;4308;51.294;6.590;2023-02-19T14:50:52;6.13;;;5.03;;
8540;SDS011;4308;51.294;6.590;2023-02-19T14:53:21;7.27;;;4.27;;
8540;SDS011;4308;51.294;6.590;2023-02-19T14:55:49;9.33;;;5.10;;
8540;SDS011;4308;51.294;6.590;2023-02-19T14:58:20;7.17;;;4.37;;
8540;SDS011;4308;51.294;6.590;2023-02-19T15:00:48;10.53;;;4.90;;
8540;SDS011;4308;51.294;6.590;2023-02-19T15:03:29;10.90;;;4.80;;
8540;SDS011;4308;51.294;6.590;2023-02-19T15:06:02;7.70;;;4.60;;
8540;SDS011;4308;51.294;6.590;2023-02-19T15:08:52;8.97;;;4.47;;
8540;SDS011;4308;51.294;6.590;2023-02-19T15:11:20;8.07;;;4.17;;
8540;SDS011;4308;51.294;6.590;2023-02-19T15:13:52;6.67;;;4.27;;
8540;SDS011;4308;51.294;6.590;2023-02-19T15:16:22;7.70;;;4.47;;
8540;SDS011;4308;51.294;6.590;2023-02-19T15:18:51;8.00;;;4.60;;
8540;SDS011;4308;51.294;6.590;2023-02-19T15:21:21;6.83;;;4.50;;
8540;SDS011;4308;51.294;6.590;2023-02-19T15:23:52;7.73;;;4.87;;
8540;SDS011;4308;51.294;6.590;2023-02-19T15:26:21;9.47;;;5.20;;
8540;SDS011;4308;51.294;6.590;2023-02-19T15:28:59;6.77;;;4.47;;
8540;SDS011;4308;51.294;6.590;2023-02-19T15:31:27;6.30;;;4.80;;
8540;SDS011;4308;51.294;6.590;2023-02-19T15:33:55;10.57;;;5.53;;
8540;SDS011;4308;51.294;6.590;2023-02-19T15:36:29;14.53;;;5.20;;
8540;SDS011;4308;51.294;6.590;2023-02-19T15:38:58;7.83;;;5.07;;
8540;SDS011;4308;51.294;6.590;2023-02-19T15:41:28;11.97;;;5.90;;
8540;SDS011;4308;51.294;6.590;2023-02-19T15:44:19;8.80;;;5.63;;
8540;SDS011;4308;51.294;6.590;2023-02-19T15:46:53;9.87;;;5.93;;
8540;SDS011;4308;51.294;6.590;2023-02-19T15:49:25;9.10;;;5.73;;
8540;SDS011;4308;51.294;6.590;2023-02-19T15:51:55;13.00;;;5.83;;
8540;SDS011;4308;51.294;6.590;2023-02-19T15:54:34;9.53;;;6.33;;
8540;SDS011;4308;51.294;6.590;2023-02-19T15:57:05;8.40;;;5.97;;
8540;SDS011;4308;51.294;6.590;2023-02-19T15:59:37;9.70;;;5.30;;
8540;SDS011;4308;51.294;6.590;2023-02-19T16:02:12;9.03;;;5.23;;
8540;SDS011;4308;51.294;6.590;2023-02-19T16:04:43;10.77;;;4.50;;
8540;SDS011;4308;51.294;6.590;2023-02-19T16:07:27;9.37;;;4.93;;
8540;SDS011;4308;51.294;6.590;2023-02-19T16:10:15;5.47;;;3.20;;
8540;SDS011;4308;51.294;6.590;2023-02-19T16:12:53;3.73;;;2.00;;
8540;SDS011;4308;51.294;6.590;2023-02-19T16:15:21;4.47;;;1.70;;
8540;SDS011;4308;51.294;6.590;2023-02-19T16:17:48;3.00;;;1.57;;
8540;SDS011;4308;51.294;6.590;2023-02-19T16:20:34;2.53;;;1.50;;
8540;SDS011;4308;51.294;6.590;2023-02-19T16:23:04;2.33;;;1.37;;
8540;SDS011;4308;51.294;6.590;2023-02-19T16:25:36;1.93;;;1.30;;
8540;SDS011;4308;51.294;6.590;2023-02-19T16:30:41;1.93;;;1.50;;
8540;SDS011;4308;51.294;6.590;2023-02-19T16:35:47;2.90;;;2.07;;
8540;SDS011;4308;51.294;6.590;2023-02-19T16:38:16;2.70;;;2.10;;
8540;SDS011;4308;51.294;6.590;2023-02-19T16:45:42;5.73;;;3.60;;
8540;SDS011;4308;51.294;6.590;2023-02-19T16:48:10;5.07;;;3.27;;
8540;SDS011;4308;51.294;6.590;2023-02-19T16:50:38;5.53;;;4.03;;
8540;SDS011;4308;51.294;6.590;2023-02-19T16:53:06;6.53;;;3.87;;
8540;SDS011;4308;51.294;6.590;2023-02-19T16:55:34;4.13;;;3.33;;
8540;SDS011;4308;51.294;6.590;2023-02-19T16:58:01;5.77;;;3.30;;
8540;SDS011;4308;51.294;6.590;2023-02-19T17:00:29;7.40;;;3.97;;
8540;SDS011;4308;51.294;6.590;2023-02-19T17:02:58;7.07;;;3.80;;
8540;SDS011;4308;51.294;6.590;2023-02-19T17:05:28;8.00;;;4.37;;
8540;SDS011;4308;51.294;6.590;2023-02-19T17:07:57;7.33;;;4.37;;
8540;SDS011;4308;51.294;6.590;2023-02-19T17:10:25;5.50;;;3.30;;
8540;SDS011;4308;51.294;6.590;2023-02-19T17:12:53;8.43;;;3.73;;
8540;SDS011;4308;51.294;6.590;2023-02-19T17:15:21;3.90;;;3.50;;
8540;SDS011;4308;51.294;6.590;2023-02-19T17:17:49;4.23;;;3.03;;
8540;SDS011;4308;51.294;6.590;2023-02-19T17:20:21;4.40;;;3.70;;
8540;SDS011;4308;51.294;6.590;2023-02-19T17:22:49;4.10;;;3.30;;
8540;SDS011;4308;51.294;6.590;2023-02-19T17:25:17;5.33;;;3.67;;
8540;SDS011;4308;51.294;6.590;2023-02-19T17:27:44;6.03;;;4.77;;
8540;SDS011;4308;51.294;6.590;2023-02-19T17:30:14;6.23;;;4.00;;
8540;SDS011;4308;51.294;6.590;2023-02-19T17:32:44;5.20;;;4.33;;
8540;SDS011;4308;51.294;6.590;2023-02-19T17:35:11;7.13;;;4.30;;
8540;SDS011;4308;51.294;6.590;2023-02-19T17:37:39;5.93;;;3.93;;
8540;SDS011;4308;51.294;6.590;2023-02-19T17:40:49;4.63;;;4.10;;
8540;SDS011;4308;51.294;6.590;2023-02-19T17:42:59;3.80;;;3.17;;
8540;SDS011;4308;51.294;6.590;2023-02-19T17:45:27;5.37;;;3.20;;